Chicago, Illinois
Traffic Map
Current Weather Conditions
Chicago, Illinois
Clear
Clear
43°
Feels Like: 39°
Wind Chill: 39° Ceiling: Unl
Heat Index: 43° Visibility: 10mi
Dew Point: 39° Wind: 7mph
Humidity: 86% Direction: 160° (SSE)
Pressure: 30.24in Gusts: 0mph
Raw Report DataKMDW 230753Z 16006KT 10SM CLR 06/04 A3024 RMK AO2 SLP244 T00610039
Traffic Incident Summary
Active as of:
Severity:
Category:
InformationThere was an issue retrieving the traffic information for this location. Please try a different location or try again shortly.
Advertisements
Track Severe Weather on mobile